Time;durP1;ratioP1;P1;durP2;ratioP2;P2;SDS_P1;SDS_P2;PMS_P1;PMS_P2;Temp;Humidity;BMP_temperature;BMP_pressure;BME280_temperature;BME280_humidity;BME280_pressure;Samples;Min_cycle;Max_cycle;Signal;HPM_P1;HPM_P2
2021/07/15 00:00:58;;;;;;;7.75;2.67;;;;;;;20.87;79.29;100432.22;1721042;81;25910;-79
2021/07/15 00:03:29;;;;;;;5.80;2.20;;;;;;;20.79;79.45;100429.40;1741465;80;25799;-79
2021/07/15 00:05:56;;;;;;;7.10;2.40;;;;;;;20.75;79.57;100418.75;1763629;79;27509;-79
2021/07/15 00:08:27;;;;;;;7.78;2.40;;;;;;;20.71;79.70;100414.38;1748123;81;25801;-78
2021/07/15 00:10:59;;;;;;;6.17;2.20;;;;;;;20.73;79.76;100395.05;1700444;80;25700;-79
2021/07/15 00:13:27;;;;;;;5.75;2.72;;;;;;;20.69;79.86;100386.59;1699595;80;25860;-79
2021/07/15 00:16:01;;;;;;;3.62;2.17;;;;;;;20.65;79.94;100396.34;1770579;79;25868;-79
2021/07/15 00:18:32;;;;;;;7.95;2.62;;;;;;;20.61;80.26;100384.34;1742839;80;28178;-79
2021/07/15 00:21:02;;;;;;;7.97;2.30;;;;;;;20.57;80.59;100379.10;1718949;80;26489;-79
2021/07/15 00:23:29;;;;;;;8.90;3.25;;;;;;;20.51;81.09;100381.49;1714602;80;25925;-79
2021/07/15 00:25:56;;;;;;;3.95;2.20;;;;;;;20.47;81.02;100370.02;1737590;80;26044;-78
2021/07/15 00:28:23;;;;;;;5.70;2.35;;;;;;;20.46;81.64;100382.83;1744731;81;26496;-78
2021/07/15 00:30:50;;;;;;;6.22;2.02;;;;;;;20.45;81.34;100379.80;1722211;80;28336;-79
2021/07/15 00:33:17;;;;;;;6.20;2.05;;;;;;;20.47;81.53;100364.05;1668321;81;25788;-78
2021/07/15 00:35:44;;;;;;;5.25;2.80;;;;;;;20.48;81.29;100360.79;1771521;80;26196;-79
2021/07/15 00:38:12;;;;;;;6.08;3.12;;;;;;;20.48;81.25;100354.81;1767893;79;25953;-79
2021/07/15 00:40:39;;;;;;;6.95;2.40;;;;;;;20.49;81.23;100356.44;1704729;80;25861;-79
2021/07/15 00:43:07;;;;;;;6.97;2.45;;;;;;;20.51;81.08;100355.64;1676629;81;27386;-79
2021/07/15 00:45:34;;;;;;;6.80;2.83;;;;;;;20.52;81.14;100354.58;1742302;81;26108;-79
2021/07/15 00:48:01;;;;;;;4.35;2.20;;;;;;;20.52;81.03;100346.42;1749915;80;26415;-79
2021/07/15 00:50:30;;;;;;;6.08;2.50;;;;;;;20.54;80.99;100342.89;1674905;81;26427;-78
2021/07/15 00:52:58;;;;;;;7.37;2.20;;;;;;;20.56;80.85;100354.34;1678098;80;26486;-79
2021/07/15 00:55:29;;;;;;;4.12;2.30;;;;;;;20.59;80.88;100363.34;1768250;80;27597;-79
2021/07/15 00:57:56;;;;;;;7.47;2.50;;;;;;;20.65;80.84;100376.47;1759329;80;25859;-80
2021/07/15 01:00:24;;;;;;;9.85;3.00;;;;;;;20.69;80.70;100374.34;1663747;81;25821;-78
2021/07/15 01:02:53;;;;;;;5.95;2.15;;;;;;;20.76;80.63;100373.56;1687847;80;25751;-79
2021/07/15 01:05:25;;;;;;;2.85;2.00;;;;;;;20.78;80.45;100363.23;1751729;80;26242;-79
2021/07/15 01:07:53;;;;;;;7.17;2.65;;;;;;;20.81;80.48;100357.02;1770551;78;27446;-79
2021/07/15 01:10:27;;;;;;;3.75;2.05;;;;;;;20.83;80.45;100337.96;1725018;80;25776;-79
2021/07/15 01:13:50;;;;;;;4.12;2.20;;;;;;;20.79;80.30;100315.06;1685306;80;25965;-78
2021/07/15 01:16:25;;;;;;;5.35;2.33;;;;;;;20.74;80.32;100314.48;1767676;80;26197;-79
2021/07/15 01:19:20;;;;;;;3.95;2.35;;;;;;;20.71;80.29;100312.30;1749374;81;25878;-79
2021/07/15 01:22:05;;;;;;;7.05;2.70;;;;;;;20.72;80.37;100313.12;1748933;80;27530;-79
2021/07/15 01:25:03;;;;;;;6.67;2.22;;;;;;;20.73;80.34;100307.41;1708356;81;25792;-78
2021/07/15 01:27:38;;;;;;;6.97;2.95;;;;;;;20.74;80.39;100294.06;1760162;80;25771;-79
2021/07/15 01:30:09;;;;;;;3.35;2.27;;;;;;;20.71;80.46;100289.69;1747984;80;25760;-79
2021/07/15 01:32:58;;;;;;;5.25;2.58;;;;;;;20.68;80.53;100292.39;1720008;80;25816;-78
2021/07/15 01:35:30;;;;;;;5.40;2.62;;;;;;;20.68;80.50;100294.28;1718520;80;27237;-78
2021/07/15 01:38:00;;;;;;;5.70;2.52;;;;;;;20.70;80.59;100300.28;1757096;80;25811;-78
2021/07/15 01:40:39;;;;;;;9.20;2.90;;;;;;;20.71;80.67;100299.22;1764997;80;25722;-79
2021/07/15 01:43:10;;;;;;;6.30;2.95;;;;;;;20.72;80.70;100299.52;1715401;81;25916;-79
2021/07/15 01:45:39;;;;;;;4.92;2.67;;;;;;;20.71;80.57;100289.69;1697820;81;25898;-79
2021/07/15 01:48:09;;;;;;;6.45;2.27;;;;;;;20.69;80.69;100283.16;1765419;80;27534;-78
2021/07/15 01:50:37;;;;;;;7.15;2.62;;;;;;;20.66;80.75;100273.30;1760987;80;25745;-79
2021/07/15 01:53:04;;;;;;;7.10;2.77;;;;;;;20.65;80.85;100278.48;1700255;81;26257;-79
2021/07/15 01:55:31;;;;;;;15.38;5.92;;;;;;;20.66;80.97;100286.92;1666503;81;25800;-79
2021/07/15 01:57:59;;;;;;;12.23;4.97;;;;;;;20.67;81.17;100298.09;1749313;81;25731;-79
2021/07/15 02:00:26;;;;;;;8.40;3.45;;;;;;;20.69;81.10;100298.66;1752351;80;28239;-79
2021/07/15 02:02:54;;;;;;;6.53;2.75;;;;;;;20.74;81.12;100289.98;1721556;79;26524;-79
2021/07/15 02:05:23;;;;;;;5.72;2.50;;;;;;;20.75;81.26;100278.02;1706114;81;25906;-78
2021/07/15 02:07:52;;;;;;;7.03;2.55;;;;;;;20.73;81.22;100270.66;1777058;79;25730;-79
2021/07/15 02:10:24;;;;;;;6.30;3.00;;;;;;;20.68;81.28;100276.59;1776924;79;25756;-79
2021/07/15 02:12:52;;;;;;;7.70;2.98;;;;;;;20.68;82.42;100463.03;1756118;79;27427;-78
2021/07/15 02:15:23;;;;;;;11.03;3.05;;;;;;;20.63;84.23;100513.35;1723266;81;26373;-78
2021/07/15 02:17:54;;;;;;;11.55;3.60;;;;;;;20.60;83.24;100530.18;1778130;79;25712;-79
2021/07/15 05:52:41;;;;;;;16.70;6.05;;;;;;;20.69;93.87;100295.41;1737703;80;25666;-78
2021/07/15 05:55:09;;;;;;;15.58;6.05;;;;;;;20.72;94.57;100294.06;1660773;83;26223;-78
2021/07/15 05:57:36;;;;;;;15.85;6.05;;;;;;;20.78;94.33;100293.81;1684268;83;27373;-78
2021/07/15 06:00:11;;;;;;;14.18;5.62;;;;;;;20.90;94.26;100288.73;1713563;83;26103;-78
2021/07/15 06:02:38;;;;;;;11.60;5.83;;;;;;;20.97;93.78;100253.94;1709139;83;25848;-78
2021/07/15 06:05:06;;;;;;;14.07;5.55;;;;;;;21.02;93.15;100244.45;1653561;85;25987;-79
2021/07/15 06:07:35;;;;;;;13.45;4.97;;;;;;;21.11;93.45;100248.31;1663643;83;26160;-78
2021/07/15 06:10:05;;;;;;;11.10;5.25;;;;;;;21.20;93.46;100252.19;1714617;83;28319;-78
2021/07/15 06:12:32;;;;;;;12.05;5.37;;;;;;;21.29;92.88;100237.81;1713276;83;25774;-78
2021/07/15 06:14:59;;;;;;;13.28;6.10;;;;;;;21.40;92.73;100230.50;1651162;83;25862;-78
2021/07/15 06:17:26;;;;;;;12.05;5.00;;;;;;;21.53;92.63;100230.02;1626528;83;25799;-78
2021/07/15 06:19:53;;;;;;;12.95;5.03;;;;;;;21.65;92.23;100216.95;1714239;83;25816;-78
2021/07/15 06:22:20;;;;;;;14.00;5.20;;;;;;;21.81;92.56;100196.80;1712778;82;27513;-78
2021/07/15 06:24:48;;;;;;;15.23;4.83;;;;;;;21.94;93.09;100165.52;1649266;84;25842;-78
2021/07/15 06:27:15;;;;;;;13.35;5.60;;;;;;;22.01;92.25;100145.06;1625993;83;26507;-79
2021/07/15 06:29:42;;;;;;;17.10;5.87;;;;;;;22.04;92.74;100151.88;1672855;83;25916;-78
2021/07/15 06:32:09;;;;;;;17.25;6.87;;;;;;;22.08;92.06;100163.88;1710491;83;26304;-78
2021/07/15 06:34:36;;;;;;;13.62;5.80;;;;;;;22.12;92.16;100179.44;1716730;83;28098;-78
2021/07/15 06:37:07;;;;;;;11.45;5.62;;;;;;;22.20;92.02;100157.05;1675275;83;25815;-78
2021/07/15 06:39:35;;;;;;;14.03;5.08;;;;;;;22.29;92.15;100136.86;1710493;83;26526;-78
2021/07/15 06:42:04;;;;;;;12.55;5.80;;;;;;;22.37;92.45;100125.37;1708932;83;25515;-78
2021/07/15 06:44:31;;;;;;;20.65;5.70;;;;;;;22.50;92.57;100152.66;1615844;83;25785;-78
2021/07/15 06:46:59;;;;;;;10.20;4.90;;;;;;;22.62;92.37;100178.63;1632862;83;27491;-79
2021/07/15 06:49:27;;;;;;;9.38;5.60;;;;;;;22.76;92.43;100196.06;1687881;83;26015;-79
2021/07/15 06:51:55;;;;;;;12.35;5.45;;;;;;;22.88;92.21;100206.70;1712596;83;25812;-78
2021/07/15 06:54:22;;;;;;;10.85;5.58;;;;;;;22.96;92.25;100215.14;1667024;83;25932;-79
2021/07/15 06:56:50;;;;;;;10.45;5.08;;;;;;;23.01;91.32;100223.84;1662750;83;26113;-79
2021/07/15 06:59:17;;;;;;;9.93;4.62;;;;;;;23.04;90.95;100236.97;1716229;83;27578;-79
2021/07/15 07:01:44;;;;;;;10.40;4.97;;;;;;;23.08;91.07;100241.31;1710924;83;26425;-79
2021/07/15 07:04:11;;;;;;;10.70;4.80;;;;;;;23.11;90.75;100249.80;1669067;83;25849;-79
2021/07/15 07:06:38;;;;;;;12.47;4.85;;;;;;;23.15;90.95;100260.98;1691659;82;25805;-78
2021/07/15 07:09:05;;;;;;;10.85;5.72;;;;;;;23.20;90.74;100296.50;1717306;83;26000;-80
2021/07/15 07:11:32;;;;;;;11.15;4.47;;;;;;;23.22;90.61;100304.70;1703902;83;27559;-79
2021/07/15 07:13:59;;;;;;;12.68;4.47;;;;;;;23.27;90.56;100313.41;1669469;83;25349;-79
2021/07/15 07:16:26;;;;;;;10.15;4.90;;;;;;;23.29;90.30;100316.14;1669544;83;25893;-78
2021/07/15 07:18:53;;;;;;;12.28;5.35;;;;;;;23.34;90.21;100327.65;1718432;82;25933;-79
2021/07/15 07:21:20;;;;;;;13.72;4.85;;;;;;;23.38;90.13;100325.45;1716800;83;26478;-79
2021/07/15 07:23:47;;;;;;;16.25;4.62;;;;;;;23.40;90.08;100325.99;1670934;83;27649;-79
2021/07/15 07:26:14;;;;;;;11.43;5.33;;;;;;;23.48;89.98;100317.78;1664274;83;25746;-78
2021/07/15 07:28:41;;;;;;;17.95;5.17;;;;;;;23.54;89.76;100313.39;1713526;83;25832;-79
2021/07/15 07:31:08;;;;;;;17.92;6.65;;;;;;;23.59;89.46;100296.95;1712608;83;26578;-79
2021/07/15 07:33:35;;;;;;;13.48;5.15;;;;;;;23.61;89.18;100293.92;1653786;83;25724;-79
2021/07/15 07:36:02;;;;;;;17.02;5.47;;;;;;;23.64;89.73;100281.90;1664389;83;27562;-79
2021/07/15 07:38:30;;;;;;;19.17;5.62;;;;;;;23.66;88.62;100267.94;1714432;83;25729;-79
2021/07/15 07:40:57;;;;;;;22.17;6.30;;;;;;;23.66;88.74;100267.94;1708709;83;26146;-79
2021/07/15 07:43:24;;;;;;;11.85;4.50;;;;;;;23.66;88.62;100225.00;1690359;84;25903;-79
2021/07/15 07:45:52;;;;;;;12.55;5.00;;;;;;;23.64;88.52;100237.32;1664612;83;25817;-79
2021/07/15 07:48:19;;;;;;;12.80;4.33;;;;;;;23.60;88.99;100301.33;1717732;83;27700;-78
2021/07/15 07:50:46;;;;;;;14.78;5.00;;;;;;;23.60;89.11;100293.12;1710641;83;25753;-78
2021/07/15 07:53:13;;;;;;;15.85;5.28;;;;;;;23.63;89.41;100302.70;1648982;84;26199;-78
2021/07/15 07:55:43;;;;;;;13.75;4.97;;;;;;;23.72;90.22;100284.05;1682672;83;25853;-79
2021/07/15 07:58:10;;;;;;;14.15;5.00;;;;;;;23.81;89.27;100295.76;1709454;83;25873;-79
2021/07/15 08:00:37;;;;;;;13.20;5.37;;;;;;;23.89;89.40;100301.46;1715620;83;27635;-79
2021/07/15 08:03:04;;;;;;;12.23;4.60;;;;;;;23.99;87.87;100300.61;1615287;83;26509;-79
2021/07/15 08:05:34;;;;;;;16.02;5.35;;;;;;;24.08;87.44;100290.74;1647685;83;25340;-79
2021/07/15 08:08:00;;;;;;;12.85;6.05;;;;;;;24.12;87.32;100316.44;1705159;83;25818;-79
2021/07/15 08:10:27;;;;;;;13.90;4.60;;;;;;;24.15;87.20;100363.21;1715065;83;25817;-78
2021/07/15 08:12:54;;;;;;;14.58;4.92;;;;;;;24.22;87.67;100377.41;1662756;83;27417;-79
2021/07/15 08:15:21;;;;;;;15.85;4.87;;;;;;;24.33;88.06;100387.76;1659532;83;26019;-79
2021/07/15 08:17:48;;;;;;;9.38;4.72;;;;;;;24.48;88.33;100404.10;1715098;83;25950;-79
2021/07/15 08:20:15;;;;;;;11.78;4.70;;;;;;;24.60;87.97;100407.84;1708115;83;25962;-78
2021/07/15 08:22:43;;;;;;;11.65;4.40;;;;;;;24.65;87.67;100418.23;1667365;82;25816;-79
2021/07/15 08:25:13;;;;;;;13.65;4.75;;;;;;;24.67;86.70;100439.86;1637312;83;27593;-79
2021/07/15 08:27:41;;;;;;;11.15;4.03;;;;;;;24.64;86.32;100450.83;1714787;83;25644;-78
2021/07/15 08:30:09;;;;;;;10.03;4.37;;;;;;;24.60;85.87;100455.23;1659521;83;25835;-79
2021/07/15 08:32:37;;;;;;;13.62;5.22;;;;;;;24.53;85.58;100449.23;1681579;83;25853;-78
2021/07/15 08:35:06;;;;;;;10.45;4.55;;;;;;;24.51;85.77;100450.08;1636438;83;25816;-78
2021/07/15 08:37:34;;;;;;;13.03;4.78;;;;;;;24.49;85.73;100447.63;1710725;83;28199;-78
2021/07/15 08:40:05;;;;;;;9.60;4.75;;;;;;;24.49;86.00;100441.32;1711899;83;25826;-78
2021/07/15 08:42:32;;;;;;;12.37;5.12;;;;;;;24.56;86.08;100456.08;1682971;83;25860;-78
2021/07/15 08:45:07;;;;;;;11.57;5.15;;;;;;;24.60;85.90;100457.15;1672018;83;25836;-77
2021/07/15 08:47:40;;;;;;;11.43;5.87;;;;;;;24.63;85.52;100457.97;1710056;83;25788;-78
2021/07/15 08:50:10;;;;;;;13.43;5.22;;;;;;;24.63;85.52;100477.97;1710634;83;27579;-78
2021/07/15 08:52:38;;;;;;;15.03;5.90;;;;;;;24.66;85.25;100491.66;1662125;83;25991;-78
2021/07/15 08:57:41;;;;;;;12.63;5.75;;;;;;;24.82;85.54;100491.86;1717828;83;25761;-79
2021/07/15 09:00:13;;;;;;;16.95;5.55;;;;;;;24.89;85.40;100491.00;1715745;83;26505;-79
2021/07/15 09:02:40;;;;;;;11.95;4.75;;;;;;;24.95;84.98;100465.20;1666989;83;28638;-79
2021/07/15 09:05:11;;;;;;;19.73;5.30;;;;;;;24.99;84.01;100489.02;1649235;83;25868;-78
2021/07/15 09:07:41;;;;;;;17.73;5.53;;;;;;;25.10;84.23;100482.36;1719776;83;25949;-79
2021/07/15 09:10:09;;;;;;;13.03;5.58;;;;;;;25.18;84.05;100483.12;1718918;83;25948;-78
2021/07/15 09:12:37;;;;;;;15.43;4.80;;;;;;;25.23;83.54;100478.16;1667688;83;25806;-79
2021/07/15 09:15:12;;;;;;;10.43;5.22;;;;;;;25.23;83.00;100468.56;1654676;84;27588;-78
2021/07/15 09:17:39;;;;;;;17.17;5.22;;;;;;;25.24;82.85;100466.89;1667916;85;26080;-78
2021/07/15 09:20:11;;;;;;;16.82;4.90;;;;;;;25.26;83.02;100459.74;1664980;85;25849;-78
2021/07/15 09:23:04;;;;;;;15.00;4.83;;;;;;;25.32;83.22;100453.11;1622323;85;25906;-78
2021/07/15 09:25:42;;;;;;;12.78;5.15;;;;;;;25.34;82.69;100442.70;1644240;85;26665;-78
2021/07/15 09:28:13;;;;;;;11.22;5.08;;;;;;;25.28;82.13;100459.72;1662533;85;27631;-79
2021/07/15 09:30:42;;;;;;;14.30;5.20;;;;;;;25.23;81.75;100445.25;1644132;85;25981;-78
2021/07/15 09:33:15;;;;;;;12.00;5.25;;;;;;;25.20;81.81;100453.49;1647530;85;25894;-78
2021/07/15 09:35:48;;;;;;;15.53;6.58;;;;;;;25.18;81.67;100474.89;1626645;85;25347;-78
2021/07/15 09:38:24;;;;;;;10.03;4.87;;;;;;;25.15;81.50;100491.08;1650207;85;26688;-78
2021/07/15 09:41:00;;;;;;;11.80;5.30;;;;;;;25.10;81.63;100505.66;1662512;85;27478;-79
2021/07/15 09:43:34;;;;;;;8.80;5.33;;;;;;;25.03;81.82;100498.30;1625114;86;26290;-78
2021/07/15 09:46:15;;;;;;;12.33;5.05;;;;;;;24.94;81.78;100478.62;1670741;85;25812;-78
2021/07/15 09:48:46;;;;;;;13.05;5.12;;;;;;;24.84;81.39;100480.06;1639541;85;26454;-78
2021/07/15 09:51:16;;;;;;;14.63;6.37;;;;;;;24.78;82.00;100509.97;1668636;85;25899;-78
2021/07/15 09:53:44;;;;;;;14.87;5.95;;;;;;;24.81;82.62;100521.71;1661248;85;27377;-79
2021/07/15 09:56:18;;;;;;;13.35;5.37;;;;;;;24.90;83.57;100524.13;1609206;86;25866;-79
2021/07/15 09:58:50;;;;;;;15.08;5.97;;;;;;;24.95;83.48;100512.61;1637733;86;25813;-79
2021/07/15 10:01:20;;;;;;;9.33;5.28;;;;;;;24.98;83.35;100508.45;1654413;86;26431;-79
2021/07/15 10:03:51;;;;;;;10.05;5.45;;;;;;;24.99;83.16;100501.89;1679449;83;25762;-78
2021/07/15 10:06:19;;;;;;;11.35;5.40;;;;;;;25.00;82.64;100514.50;1662611;83;27527;-78
2021/07/15 10:08:52;;;;;;;10.13;4.97;;;;;;;24.98;82.29;100522.16;1678960;83;25693;-78
2021/07/15 10:11:26;;;;;;;12.47;6.05;;;;;;;24.92;81.85;100539.20;1700551;83;25708;-78
2021/07/15 10:14:03;;;;;;;13.78;6.30;;;;;;;24.83;81.40;100551.05;1680927;82;25855;-78
2021/07/15 10:16:33;;;;;;;11.45;5.10;;;;;;;24.72;81.51;100562.54;1650343;83;25843;-78
2021/07/15 10:19:01;;;;;;;11.73;6.22;;;;;;;24.66;81.53;100571.89;1702650;83;27680;-78
2021/07/15 10:21:34;;;;;;;12.53;5.97;;;;;;;24.57;81.40;100581.80;1703974;83;25800;-78
2021/07/15 10:24:18;;;;;;;11.18;5.30;;;;;;;24.47;81.30;100568.13;1666873;83;25892;-78
2021/07/15 10:26:49;;;;;;;8.55;5.05;;;;;;;24.31;81.51;100583.80;1669084;83;26515;-78
2021/07/15 10:29:17;;;;;;;12.35;7.55;;;;;;;24.24;81.34;100585.16;1680883;83;25857;-78
2021/07/15 10:31:47;;;;;;;10.18;5.83;;;;;;;24.15;81.06;100568.48;1702429;83;28269;-78
2021/07/15 10:34:14;;;;;;;8.35;5.58;;;;;;;24.07;81.31;100595.05;1702695;83;26014;-78
2021/07/15 10:36:42;;;;;;;10.13;5.47;;;;;;;24.03;81.56;100582.98;1674258;83;25801;-78
2021/07/15 10:39:15;;;;;;;11.93;6.50;;;;;;;24.02;81.83;100579.13;1656079;83;25809;-78
2021/07/15 10:41:48;;;;;;;8.63;5.33;;;;;;;23.98;81.45;100554.25;1698233;83;25824;-78
2021/07/15 10:44:15;;;;;;;8.45;5.60;;;;;;;23.91;81.60;100573.42;1680391;83;27401;-78
2021/07/15 10:46:42;;;;;;;11.45;7.30;;;;;;;23.87;81.71;100572.30;1654629;83;25896;-78
2021/07/15 10:49:12;;;;;;;10.63;7.05;;;;;;;23.81;81.96;100541.41;1681067;83;25787;-78
2021/07/15 10:51:45;;;;;;;15.63;7.25;;;;;;;23.70;81.75;100531.02;1703734;83;26596;-78
2021/07/15 10:54:16;;;;;;;17.65;8.93;;;;;;;23.68;81.85;100518.71;1650241;85;25853;-79
2021/07/15 10:56:52;;;;;;;9.40;5.90;;;;;;;23.63;81.67;100512.70;1623371;85;27642;-79
2021/07/15 10:59:29;;;;;;;14.73;7.22;;;;;;;23.53;81.71;100525.02;1643705;85;25825;-79
2021/07/15 11:02:01;;;;;;;10.40;6.33;;;;;;;23.41;82.25;100513.54;1685993;84;25801;-78
2021/07/15 11:04:34;;;;;;;10.45;5.53;;;;;;;23.39;82.64;100509.44;1649367;86;26008;-78
2021/07/15 11:07:27;;;;;;;10.48;6.33;;;;;;;23.35;82.97;100533.73;1663300;84;26498;-78
2021/07/15 11:10:15;;;;;;;10.82;6.70;;;;;;;23.26;83.39;100532.63;1687244;84;27591;-78
2021/07/15 11:13:04;;;;;;;12.43;6.90;;;;;;;23.22;83.41;100538.36;1660105;85;25927;-78
2021/07/15 11:15:55;;;;;;;15.75;6.87;;;;;;;23.26;83.76;100535.90;1662819;84;25859;-78
2021/07/15 11:18:56;;;;;;;13.48;6.12;;;;;;;23.30;83.48;100532.89;1651911;85;25903;-79
2021/07/15 11:21:31;;;;;;;12.05;6.78;;;;;;;23.31;83.58;100523.62;1687993;84;25838;-78
2021/07/15 11:24:10;;;;;;;10.00;5.85;;;;;;;23.21;83.97;100506.65;1689172;84;28305;-79
2021/07/15 11:26:41;;;;;;;9.40;6.55;;;;;;;23.16;84.39;100501.16;1646625;84;25961;-78
2021/07/15 11:29:12;;;;;;;10.58;6.10;;;;;;;23.11;84.13;100499.81;1639370;84;25487;-79
2021/07/15 11:31:48;;;;;;;9.20;6.22;;;;;;;23.15;84.63;100480.95;1659164;84;25914;-78
2021/07/15 11:34:45;;;;;;;13.65;6.90;;;;;;;23.19;85.10;100464.28;1692436;84;25840;-79
2021/07/15 11:37:34;;;;;;;10.40;6.70;;;;;;;23.25;85.80;100459.08;1674647;84;28271;-79
2021/07/15 11:40:05;;;;;;;9.95;6.60;;;;;;;23.31;85.85;100449.81;1648680;85;25858;-78
2021/07/15 11:42:34;;;;;;;9.18;6.47;;;;;;;23.29;85.23;100450.07;1640536;85;25899;-79
2021/07/15 11:45:07;;;;;;;10.20;5.80;;;;;;;23.31;85.98;100460.75;1670112;85;25896;-78
2021/07/15 11:47:54;;;;;;;15.30;6.22;;;;;;;23.37;85.83;100461.05;1647922;85;26254;-78
2021/07/15 11:50:33;;;;;;;11.65;6.10;;;;;;;23.35;85.20;100449.00;1643559;84;28144;-79
2021/07/15 11:53:21;;;;;;;10.98;6.05;;;;;;;23.32;84.95;100429.58;1662761;84;26391;-78
2021/07/15 11:55:52;;;;;;;10.95;6.35;;;;;;;23.27;85.08;100411.80;1674842;85;25821;-79
2021/07/15 11:58:45;;;;;;;11.38;6.15;;;;;;;23.18;85.00;100410.73;1654466;85;25910;-79
2021/07/15 12:01:24;;;;;;;12.13;6.62;;;;;;;23.11;85.19;100408.27;1645172;85;25924;-78
2021/07/15 12:04:08;;;;;;;11.63;6.37;;;;;;;23.05;85.40;100397.08;1621621;86;28235;-78
2021/07/15 12:06:44;;;;;;;12.05;7.00;;;;;;;22.99;85.98;100405.80;1673664;85;25808;-78
2021/07/15 12:09:14;;;;;;;12.98;7.08;;;;;;;22.94;86.05;100422.21;1649230;85;25872;-78
2021/07/15 12:11:43;;;;;;;11.12;7.47;;;;;;;22.99;86.56;100433.13;1674595;85;25768;-78
2021/07/15 12:14:10;;;;;;;10.32;7.95;;;;;;;23.03;86.60;100433.95;1626852;85;25916;-78
2021/07/15 12:16:44;;;;;;;12.95;7.42;;;;;;;23.11;86.75;100430.67;1649993;85;27562;-78
2021/07/15 12:19:12;;;;;;;12.93;7.00;;;;;;;23.18;86.83;100432.59;1655262;85;26666;-78
2021/07/15 12:21:39;;;;;;;11.28;6.80;;;;;;;23.20;86.50;100434.51;1649957;84;25810;-78
2021/07/15 12:24:18;;;;;;;8.90;7.30;;;;;;;23.22;86.50;100441.34;1650947;86;25774;-78
2021/07/15 12:26:45;;;;;;;11.88;7.15;;;;;;;23.24;86.70;100435.59;1627267;86;25837;-78
2021/07/15 12:29:14;;;;;;;9.70;7.60;;;;;;;23.30;87.11;100444.89;1609481;86;27347;-78
2021/07/15 12:31:43;;;;;;;10.13;8.03;;;;;;;23.39;87.33;100436.99;1609548;85;26204;-78
2021/07/15 12:34:12;;;;;;;13.22;7.75;;;;;;;23.45;87.08;100427.69;1673160;84;26004;-78
2021/07/15 12:36:40;;;;;;;10.48;7.97;;;;;;;23.43;86.82;100417.03;1654702;86;25917;-78
2021/07/15 12:39:12;;;;;;;15.13;8.13;;;;;;;23.43;87.13;100425.77;1648344;85;25963;-79
2021/07/15 12:41:44;;;;;;;10.08;7.03;;;;;;;23.37;86.81;100430.98;1623628;85;27531;-78
2021/07/15 12:44:14;;;;;;;15.23;7.65;;;;;;;23.38;86.96;100431.23;1629959;85;25857;-78
2021/07/15 12:46:48;;;;;;;12.63;7.62;;;;;;;23.37;86.90;100429.08;1674601;85;25984;-79
2021/07/15 12:49:22;;;;;;;10.15;7.25;;;;;;;23.46;87.09;100425.23;1672980;85;26420;-79
2021/07/15 12:51:56;;;;;;;10.18;7.08;;;;;;;23.53;87.14;100422.48;1634569;86;25788;-79
2021/07/15 12:54:37;;;;;;;12.55;8.05;;;;;;;23.59;87.44;100416.44;1629539;86;27835;-79
2021/07/15 12:57:11;;;;;;;12.18;7.30;;;;;;;23.65;87.35;100418.89;1673621;85;25773;-78
2021/07/15 12:59:41;;;;;;;12.40;7.53;;;;;;;23.74;87.10;100413.13;1628146;86;26603;-79
2021/07/15 13:02:09;;;;;;;12.03;7.17;;;;;;;23.81;87.03;100401.90;1603653;86;25787;-79
2021/07/15 13:04:37;;;;;;;13.45;8.50;;;;;;;23.88;86.93;100390.66;1654799;84;25871;-79
2021/07/15 13:07:07;;;;;;;9.48;7.28;;;;;;;23.92;87.30;100370.67;1604814;85;28313;-79
2021/07/15 13:15:10;;;;;;;12.43;7.00;;;;;;;23.94;85.07;100358.91;1649358;86;25861;-79
2021/07/15 13:17:43;;;;;;;;;;;;;;;23.98;85.48;100361.89;1608070;86;25939;-79
2021/07/15 13:20:20;;;;;;;10.58;6.78;;;;;;;24.06;86.22;100358.05;1650511;86;28279;-78
2021/07/15 13:23:00;;;;;;;10.05;6.78;;;;;;;24.13;85.91;100335.30;1616250;85;26035;-78
2021/07/15 13:25:27;;;;;;;8.78;7.05;;;;;;;24.24;84.74;100329.22;1648013;85;26662;-78
2021/07/15 13:28:12;;;;;;;15.23;7.08;;;;;;;24.32;85.11;100340.39;1641179;85;26629;-79
2021/07/15 13:30:41;;;;;;;7.20;6.15;;;;;;;24.45;85.18;100352.09;1645231;85;25797;-78
2021/07/15 13:33:21;;;;;;;11.10;6.12;;;;;;;24.62;84.46;100357.17;1645042;85;28184;-78
2021/07/15 13:35:51;;;;;;;12.30;6.62;;;;;;;24.73;83.76;100356.54;1622712;86;26551;-79
2021/07/15 13:38:20;;;;;;;9.70;6.60;;;;;;;24.81;81.98;100350.47;1620791;86;25894;-78
2021/07/15 13:40:49;;;;;;;11.25;6.60;;;;;;;24.87;82.58;100347.98;1673265;85;26133;-78
2021/07/15 13:43:26;;;;;;;10.43;6.58;;;;;;;24.96;82.85;100355.83;1628883;85;25946;-79
2021/07/15 13:45:54;;;;;;;8.83;5.80;;;;;;;25.04;81.63;100371.68;1660632;84;27618;-79
2021/07/15 13:48:25;;;;;;;11.00;6.37;;;;;;;25.13;82.90;100378.98;1649457;85;26022;-78
2021/07/15 13:51:02;;;;;;;11.88;6.33;;;;;;;25.25;81.99;100381.35;1647988;86;32552;-79
2021/07/15 13:53:29;;;;;;;11.05;5.97;;;;;;;25.44;82.13;100375.44;1647678;86;26117;-79
2021/07/15 13:55:57;;;;;;;7.60;6.12;;;;;;;25.54;80.71;100371.20;1640880;86;25847;-79
2021/07/15 13:58:24;;;;;;;11.57;6.58;;;;;;;25.57;80.24;100356.92;1634183;86;28244;-79
2021/07/15 14:00:55;;;;;;;14.98;7.22;;;;;;;25.59;80.12;100350.59;1642679;85;25775;-79
2021/07/15 14:03:22;;;;;;;17.52;5.85;;;;;;;25.63;79.75;100339.84;1612305;86;25812;-79
2021/07/15 14:05:53;;;;;;;10.10;6.30;;;;;;;25.63;79.62;100344.78;1629385;86;26224;-79
2021/07/15 14:08:20;;;;;;;;;;;;;;;25.69;79.23;100342.23;1632243;86;25963;-79
2021/07/15 14:10:48;;;;;;;12.45;6.42;;;;;;;25.69;78.96;100344.16;1628076;86;28251;-79
2021/07/15 14:13:15;;;;;;;9.65;6.28;;;;;;;25.71;79.82;100355.10;1602376;86;26754;-79
2021/07/15 14:15:50;;;;;;;10.08;5.97;;;;;;;25.81;78.22;100351.44;1621495;86;26679;-79
2021/07/15 14:18:26;;;;;;;11.30;6.22;;;;;;;25.86;79.03;100343.13;1702344;83;25854;-79
2021/07/15 14:20:57;;;;;;;12.70;6.70;;;;;;;25.92;78.79;100352.92;1700936;83;26389;-79
2021/07/15 14:23:27;;;;;;;;;;;;;;;25.91;78.22;100354.88;1682814;83;29021;-79
2021/07/15 14:26:00;;;;;;;13.22;6.08;;;;;;;25.91;78.45;100363.66;1703276;82;26551;-79
2021/07/15 14:28:28;;;;;;;10.58;5.72;;;;;;;25.93;77.64;100373.78;1699300;82;25304;-79
2021/07/15 14:30:55;;;;;;;13.10;6.20;;;;;;;26.01;78.18;100375.32;1656952;83;25842;-79
2021/07/15 14:33:23;;;;;;;13.25;6.95;;;;;;;26.01;76.60;100386.30;1668783;83;25353;-79
2021/07/15 14:35:51;;;;;;;9.68;5.72;;;;;;;26.00;76.89;100397.58;1672898;83;27327;-79
2021/07/15 14:38:20;;;;;;;12.58;5.62;;;;;;;26.01;75.90;100398.66;1674928;82;25971;-79
2021/07/15 14:40:48;;;;;;;10.72;6.03;;;;;;;26.05;76.12;100413.97;1681434;83;25882;-79
2021/07/15 14:43:15;;;;;;;12.10;7.40;;;;;;;26.11;76.19;100421.06;1608738;87;25824;-80
2021/07/15 14:45:42;;;;;;;8.90;5.30;;;;;;;26.15;75.90;100435.04;1606409;87;26671;-79
2021/07/15 14:48:10;;;;;;;11.90;6.45;;;;;;;26.13;75.29;100442.75;1663979;85;27559;-79
2021/07/15 14:50:38;;;;;;;10.03;5.65;;;;;;;26.11;74.95;100447.72;1635743;87;26221;-78
2021/07/15 15:13:01;;;;;;;9.53;6.45;;;;;;;27.15;71.61;100474.05;1745229;79;25636;-79
2021/07/15 15:15:28;;;;;;;18.57;8.68;;;;;;;26.90;72.18;100480.77;1688028;83;26481;-79
2021/07/15 15:17:55;;;;;;;8.83;6.25;;;;;;;26.78;72.95;100486.41;1675823;83;27327;-79
2021/07/15 15:20:22;;;;;;;11.15;6.05;;;;;;;26.62;72.61;100467.35;1712708;83;25841;-78
2021/07/15 15:22:49;;;;;;;11.63;6.60;;;;;;;26.46;72.72;100465.11;1714943;83;25816;-78
2021/07/15 15:25:16;;;;;;;17.73;9.98;;;;;;;26.40;73.09;100460.80;1696075;83;25811;-78
2021/07/15 15:27:43;;;;;;;11.83;6.72;;;;;;;26.45;73.95;100466.23;1673266;83;26019;-78
2021/07/15 15:30:12;;;;;;;14.58;6.97;;;;;;;26.56;73.75;100463.63;1703585;82;27610;-79
2021/07/15 15:48:12;;;;;;;10.82;5.75;;;;;;;27.65;69.94;100436.64;1807515;77;25635;-79
2021/07/15 15:50:40;;;;;;;11.15;6.33;;;;;;;27.50;70.13;100437.16;1746267;79;25764;-80
2021/07/15 15:53:07;;;;;;;8.00;5.30;;;;;;;27.48;69.91;100432.52;1768754;79;27462;-79